createdAt,value
2018-04-26T00:00:59.437Z,100736.69
2018-04-26T00:03:25.340Z,100734.23
2018-04-26T00:05:51.220Z,100731.23
2018-04-26T00:08:17.258Z,100729.86
2018-04-26T00:10:43.217Z,100719.17
2018-04-26T00:13:09.110Z,100718.77
2018-04-26T00:15:35.015Z,100719.66
2018-04-26T00:18:01.229Z,100720.66
2018-04-26T00:20:27.292Z,100722.98
2018-04-26T00:22:53.171Z,100731.87
2018-04-26T00:25:19.147Z,100731.83
2018-04-26T00:27:45.107Z,100727.09
2018-04-26T00:30:10.979Z,100726.49
2018-04-26T00:32:37.060Z,100729.22
2018-04-26T00:35:02.982Z,100730.16
2018-04-26T00:37:28.888Z,100736.39
2018-04-26T00:39:54.852Z,100729.48
2018-04-26T00:42:20.737Z,100739.12
2018-04-26T00:44:46.752Z,100735.35
2018-04-26T00:47:12.959Z,100740.20
2018-04-26T00:49:38.865Z,100738.13
2018-04-26T00:52:04.750Z,100735.16
2018-04-26T00:54:30.704Z,100737.45
2018-04-26T00:56:56.752Z,100739.30
2018-04-26T00:59:22.660Z,100732.34
2018-04-26T01:01:48.575Z,100726.34
2018-04-26T01:04:14.500Z,100729.50
2018-04-26T01:06:40.380Z,100730.46
2018-04-26T01:09:06.464Z,100731.41
2018-04-26T01:11:32.353Z,100735.36
2018-04-26T01:13:58.288Z,100736.32
2018-04-26T01:16:24.384Z,100736.41
2018-04-26T01:18:50.275Z,100736.86
2018-04-26T01:21:16.337Z,100729.52
2018-04-26T01:23:42.254Z,100736.51
2018-04-26T01:26:08.143Z,100735.25
2018-04-26T01:28:34.023Z,100738.34
2018-04-26T01:31:00.040Z,100733.62
2018-04-26T01:33:26.108Z,100730.62
2018-04-26T01:35:51.982Z,100735.92
2018-04-26T01:38:17.887Z,100729.39
2018-04-26T01:40:43.781Z,100725.53
2018-04-26T01:43:09.667Z,100735.62
2018-04-26T01:45:35.720Z,100730.02
2018-04-26T01:48:01.641Z,100736.56
2018-04-26T01:50:27.538Z,100741.79
2018-04-26T01:52:53.748Z,100742.23
2018-04-26T01:55:19.628Z,100740.97
2018-04-26T01:57:45.639Z,100741.80
2018-04-26T02:00:11.569Z,100748.86
2018-04-26T02:02:37.452Z,100744.07
2018-04-26T02:05:03.365Z,100748.05
2018-04-26T02:07:29.309Z,100744.55
2018-04-26T02:09:56.135Z,100748.95
2018-04-26T02:12:22.024Z,100748.09
2018-04-26T02:14:48.014Z,100742.44
2018-04-26T02:17:13.891Z,100737.65
2018-04-26T02:19:39.793Z,100745.95
2018-04-26T02:22:06.260Z,100748.97
2018-04-26T02:24:32.139Z,100745.53
2018-04-26T02:26:58.040Z,100740.30
2018-04-26T02:29:23.985Z,100742.08
2018-04-26T02:31:49.865Z,100740.73
2018-04-26T02:34:15.897Z,100733.78
2018-04-26T02:36:41.842Z,100739.44
2018-04-26T02:39:07.722Z,100726.81
2018-04-26T02:41:33.636Z,100734.64
2018-04-26T02:43:59.609Z,100733.34
2018-04-26T02:46:25.642Z,100729.38
2018-04-26T02:48:51.541Z,100730.63
2018-04-26T02:51:17.475Z,100728.41
2018-04-26T02:53:43.354Z,100730.14
2018-04-26T02:56:09.222Z,100726.16
2018-04-26T02:58:35.292Z,100736.13
2018-04-26T03:01:02.225Z,100720.44
2018-04-26T03:03:28.125Z,100731.77
2018-04-26T03:05:56.978Z,100729.53
2018-04-26T03:08:22.939Z,100730.02
2018-04-26T03:10:48.903Z,100736.55
2018-04-26T03:13:14.849Z,100730.90
2018-04-26T03:15:40.711Z,100725.19
2018-04-26T03:18:06.615Z,100721.67
2018-04-26T03:20:32.549Z,100721.20
2018-04-26T03:22:58.574Z,100725.56
2018-04-26T03:25:24.483Z,100730.83
2018-04-26T03:27:51.136Z,100727.34
2018-04-26T03:30:17.011Z,100726.91
2018-04-26T03:32:42.871Z,100726.54
2018-04-26T03:35:08.915Z,100723.94
2018-04-26T03:37:34.802Z,100722.20
2018-04-26T03:40:00.678Z,100719.58
2018-04-26T03:42:26.588Z,100710.93
2018-04-26T03:44:52.495Z,100717.08
2018-04-26T03:47:18.543Z,100720.12
2018-04-26T03:49:44.470Z,100720.17
2018-04-26T03:52:10.376Z,100717.56
2018-04-26T03:54:36.285Z,100715.88
2018-04-26T03:57:02.209Z,100720.67
2018-04-26T03:59:28.235Z,100716.75
2018-04-26T04:02:06.445Z,100704.17
2018-04-26T04:04:44.834Z,100708.91
2018-04-26T04:07:10.757Z,100715.88
2018-04-26T04:09:36.812Z,100712.83
2018-04-26T04:12:02.713Z,100719.27
2018-04-26T04:14:28.661Z,100722.73
2018-04-26T04:16:54.604Z,100715.21
2018-04-26T04:19:20.573Z,100723.80
2018-04-26T04:21:46.648Z,100712.31
2018-04-26T04:24:12.527Z,100712.67
2018-04-26T04:26:38.419Z,100718.64
2018-04-26T04:29:04.344Z,100702.03
2018-04-26T04:31:30.267Z,100717.20
2018-04-26T04:33:56.361Z,100713.12
2018-04-26T04:36:22.264Z,100716.53
2018-04-26T04:38:48.152Z,100716.34
2018-04-26T04:41:14.014Z,100712.31
2018-04-26T04:43:39.943Z,100707.80
2018-04-26T04:46:05.947Z,100718.17
2018-04-26T04:48:31.824Z,100717.20
2018-04-26T04:50:57.730Z,100722.86
2018-04-26T04:53:23.628Z,100717.95
2018-04-26T04:55:49.500Z,100721.33
2018-04-26T04:58:15.564Z,100713.78
2018-04-26T05:00:41.453Z,100717.66
2018-04-26T05:03:07.339Z,100717.21
2018-04-26T05:05:33.254Z,100717.67
2018-04-26T05:07:59.155Z,100711.22
2018-04-26T05:10:25.179Z,100712.48
2018-04-26T05:12:51.115Z,100721.47
2018-04-26T05:15:16.988Z,100724.73
2018-04-26T05:17:42.864Z,100718.50
2018-04-26T05:20:08.950Z,100720.92
2018-04-26T05:22:34.947Z,100728.64
2018-04-26T05:25:00.799Z,100729.81
2018-04-26T05:27:27.000Z,100736.16
2018-04-26T05:29:52.896Z,100748.84
2018-04-26T05:32:18.776Z,100746.33
2018-04-26T05:34:44.864Z,100746.88
2018-04-26T05:37:10.713Z,100757.64
2018-04-26T05:39:36.612Z,100759.46
2018-04-26T05:42:02.616Z,100758.81
2018-04-26T05:44:28.502Z,100744.09
2018-04-26T05:46:54.567Z,100738.52
2018-04-26T05:49:20.475Z,100747.19
2018-04-26T05:51:46.342Z,100742.80
2018-04-26T05:54:12.221Z,100746.67
2018-04-26T05:56:38.136Z,100750.17
2018-04-26T05:59:04.168Z,100748.78
2018-04-26T06:01:30.057Z,100757.98
2018-04-26T06:03:55.955Z,100760.59
2018-04-26T06:06:21.825Z,100769.63
2018-04-26T06:08:47.698Z,100771.48
2018-04-26T06:11:13.732Z,100775.76
2018-04-26T06:13:39.668Z,100780.09
2018-04-26T06:16:05.514Z,100777.48
2018-04-26T06:18:31.476Z,100781.80
2018-04-26T06:20:57.340Z,100784.74
2018-04-26T06:23:23.360Z,100779.97
2018-04-26T06:25:49.576Z,100785.67
2018-04-26T06:28:15.441Z,100782.64
2018-04-26T06:30:41.346Z,100790.02
2018-04-26T06:33:14.989Z,100785.22
2018-04-26T06:35:41.027Z,100779.50
2018-04-26T06:38:06.949Z,100784.30
2018-04-26T06:40:32.904Z,100779.38
2018-04-26T06:42:58.801Z,100778.05
2018-04-26T06:45:24.681Z,100777.08
2018-04-26T06:47:50.842Z,100783.44
2018-04-26T06:50:16.648Z,100773.67
2018-04-26T06:52:42.567Z,100778.63
2018-04-26T06:55:08.487Z,100777.77
2018-04-26T06:57:34.377Z,100776.30
2018-04-26T07:00:00.442Z,100777.02
2018-04-26T07:02:26.372Z,100775.16
2018-04-26T07:04:52.254Z,100775.70
2018-04-26T07:07:18.116Z,100773.23
2018-04-26T07:09:44.054Z,100776.00
2018-04-26T07:12:10.118Z,100771.72
2018-04-26T07:14:36.095Z,100777.44
2018-04-26T07:17:02.009Z,100775.55
2018-04-26T07:19:33.376Z,100767.73
2018-04-26T07:21:59.251Z,100778.48
2018-04-26T07:24:25.673Z,100773.73
2018-04-26T07:26:51.628Z,100768.91
2018-04-26T07:29:17.494Z,100765.25
2018-04-26T07:31:43.435Z,100765.87
2018-04-26T07:34:09.339Z,100771.59
2018-04-26T07:36:35.499Z,100773.56
2018-04-26T07:39:01.477Z,100777.05
2018-04-26T07:41:27.351Z,100776.33
2018-04-26T07:43:53.305Z,100770.73
2018-04-26T07:46:19.217Z,100771.58
2018-04-26T07:48:45.279Z,100766.22
2018-04-26T07:51:11.154Z,100768.69
2018-04-26T07:53:37.140Z,100761.59
2018-04-26T07:56:03.036Z,100757.25
2018-04-26T07:58:28.907Z,100753.34
2018-04-26T08:00:59.256Z,100751.55
2018-04-26T08:03:25.125Z,100757.00
2018-04-26T08:05:51.021Z,100752.34
2018-04-26T08:08:16.932Z,100751.83
2018-04-26T08:10:42.812Z,100746.44
2018-04-26T08:13:08.829Z,100750.41
2018-04-26T08:15:34.751Z,100744.75
2018-04-26T08:18:00.789Z,100739.73
2018-04-26T08:20:26.673Z,100742.16
2018-04-26T08:22:52.681Z,100739.41
2018-04-26T08:25:18.691Z,100739.02
2018-04-26T08:27:46.591Z,100741.34
2018-04-26T08:30:12.933Z,100742.67
2018-04-26T08:32:38.840Z,100743.33
2018-04-26T08:35:04.728Z,100732.98
2018-04-26T08:37:30.791Z,100736.41
2018-04-26T08:39:56.679Z,100743.02
2018-04-26T08:42:22.559Z,100748.30
2018-04-26T08:44:48.552Z,100750.59
2018-04-26T08:47:14.440Z,100772.80
2018-04-26T08:49:40.499Z,100768.42
2018-04-26T08:52:06.432Z,100758.67
2018-04-26T08:54:32.325Z,100753.62
2018-04-26T08:56:58.221Z,100762.97
2018-04-26T08:59:24.145Z,100772.79
2018-04-26T09:01:50.205Z,100778.89
2018-04-26T09:04:16.095Z,100771.88
2018-04-26T09:06:42.081Z,100776.97
2018-04-26T09:09:07.999Z,100766.67
2018-04-26T09:11:33.888Z,100770.73
2018-04-26T09:13:59.919Z,100773.13
2018-04-26T09:16:25.797Z,100779.22
2018-04-26T09:18:51.768Z,100798.48
2018-04-26T09:21:17.738Z,100800.20
2018-04-26T09:23:43.599Z,100818.16
2018-04-26T09:26:09.652Z,100826.08
2018-04-26T09:28:35.568Z,100812.31
2018-04-26T09:31:01.448Z,100816.59
2018-04-26T09:33:27.854Z,100823.30
2018-04-26T09:35:53.887Z,100819.97
2018-04-26T09:38:19.906Z,100831.41
2018-04-26T09:40:46.105Z,100838.41
2018-04-26T09:43:12.049Z,100827.92
2018-04-26T09:45:37.940Z,100832.95
2018-04-26T09:48:03.817Z,100822.81
2018-04-26T09:50:29.871Z,100822.33
2018-04-26T09:52:55.739Z,100835.70
2018-04-26T09:55:21.639Z,100839.66
2018-04-26T09:57:47.557Z,100837.61
2018-04-26T10:00:13.456Z,100842.53
2018-04-26T10:02:45.519Z,100850.84
2018-04-26T10:05:11.452Z,100839.42
2018-04-26T10:07:37.350Z,100843.46
2018-04-26T10:10:03.251Z,100851.34
2018-04-26T10:12:29.163Z,100850.97
2018-04-26T10:14:55.179Z,100847.45
2018-04-26T10:17:21.075Z,100848.69
2018-04-26T10:19:50.908Z,100851.66
2018-04-26T10:22:16.833Z,100848.87
2018-04-26T10:24:42.768Z,100847.34
2018-04-26T10:27:08.828Z,100853.54
2018-04-26T10:29:34.719Z,100849.88
2018-04-26T10:32:00.609Z,100842.41
2018-04-26T10:34:26.543Z,100853.65
2018-04-26T10:36:52.439Z,100853.78
2018-04-26T10:39:18.478Z,100840.69
2018-04-26T10:41:44.395Z,100852.49
2018-04-26T10:44:10.294Z,100852.81
2018-04-26T10:46:36.180Z,100855.89
2018-04-26T10:49:02.149Z,100847.34
2018-04-26T10:51:30.452Z,100857.30
2018-04-26T10:53:56.347Z,100857.78
2018-04-26T10:56:22.272Z,100859.65
2018-04-26T10:58:48.500Z,100855.38
2018-04-26T11:01:14.401Z,100859.14
2018-04-26T11:03:40.803Z,100848.83
2018-04-26T11:06:06.675Z,100853.07
2018-04-26T11:08:32.557Z,100853.18
2018-04-26T11:10:59.550Z,100845.98
2018-04-26T11:13:25.443Z,100844.75
2018-04-26T11:15:51.466Z,100843.05
2018-04-26T11:18:17.529Z,100841.52
2018-04-26T11:20:43.523Z,100842.14
2018-04-26T11:23:09.501Z,100838.92
2018-04-26T11:26:01.775Z,100846.71
2018-04-26T11:28:29.145Z,100855.24
2018-04-26T11:30:55.217Z,100851.19
2018-04-26T11:33:21.155Z,100846.78
2018-04-26T11:35:48.200Z,100856.92
2018-04-26T11:38:14.454Z,100850.94
2018-04-26T11:40:40.475Z,100859.55
2018-04-26T11:43:06.356Z,100851.55
2018-04-26T11:45:32.334Z,100852.94
2018-04-26T11:47:58.231Z,100853.75
2018-04-26T11:50:24.251Z,100849.27
2018-04-26T11:52:50.448Z,100842.52
2018-04-26T11:55:16.461Z,100863.99
2018-04-26T11:57:42.425Z,100854.19
2018-04-26T12:00:08.563Z,100859.87
2018-04-26T12:02:34.871Z,100862.69
2018-04-26T12:05:01.396Z,100850.78
2018-04-26T12:07:27.767Z,100856.52
2018-04-26T12:09:56.520Z,100864.80
2018-04-26T12:12:31.184Z,100857.89
2018-04-26T12:15:01.227Z,100870.38
2018-04-26T12:17:27.160Z,100877.84
2018-04-26T12:19:53.198Z,100880.73
2018-04-26T12:22:19.144Z,100868.45
2018-04-26T12:24:46.497Z,100874.96
2018-04-26T12:27:12.884Z,100871.23
2018-04-26T12:29:38.794Z,100867.41
2018-04-26T12:32:04.691Z,100873.38
2018-04-26T12:34:30.850Z,100872.01
2018-04-26T12:36:56.740Z,100883.00
2018-04-26T12:39:23.001Z,100889.09
2018-04-26T12:41:49.396Z,100882.88
2018-04-26T12:44:21.477Z,100885.16
2018-04-26T12:46:47.420Z,100878.38
2018-04-26T12:49:13.338Z,100877.19
2018-04-26T12:51:40.059Z,100890.22
2018-04-26T12:54:05.930Z,100909.94
2018-04-26T12:56:31.877Z,100913.38
2018-04-26T12:58:57.988Z,100914.69
2018-04-26T13:01:23.893Z,100915.63
2018-04-26T13:03:50.549Z,100901.30
2018-04-26T13:06:16.428Z,100896.23
2018-04-26T13:08:42.297Z,100903.31
2018-04-26T13:11:08.584Z,100900.77
2018-04-26T13:13:34.472Z,100887.20
2018-04-26T13:16:01.202Z,100894.41
2018-04-26T13:18:27.342Z,100888.30
2018-04-26T13:20:53.224Z,100890.99
2018-04-26T13:23:19.416Z,100886.87
2018-04-26T13:25:45.353Z,100890.39
2018-04-26T13:28:11.886Z,100899.66
2018-04-26T13:30:37.786Z,100893.41
2018-04-26T13:33:03.754Z,100906.91
2018-04-26T13:35:30.065Z,100907.53
2018-04-26T13:37:56.136Z,100912.22
2018-04-26T13:40:22.543Z,100902.79
2018-04-26T13:42:48.469Z,100906.42
2018-04-26T13:45:14.371Z,100909.16
2018-04-26T13:47:40.601Z,100907.73
2018-04-26T13:50:06.510Z,100920.80
2018-04-26T13:52:32.897Z,100937.30
2018-04-26T13:55:00.237Z,100943.41
2018-04-26T13:57:26.344Z,100935.61
2018-04-26T13:59:55.820Z,100935.39
2018-04-26T14:02:21.797Z,100934.79
2018-04-26T14:04:47.849Z,100931.44
2018-04-26T14:07:13.788Z,100931.27
2018-04-26T14:09:39.711Z,100929.27
2018-04-26T14:12:05.593Z,100930.45
2018-04-26T14:14:31.838Z,100925.00
2018-04-26T14:16:57.987Z,100927.75
2018-04-26T14:19:26.532Z,100928.22
2018-04-26T14:21:52.452Z,100921.71
2018-04-26T14:24:18.433Z,100926.28
2018-04-26T14:26:44.381Z,100925.17
2018-04-26T14:29:10.435Z,100931.78
2018-04-26T14:31:36.443Z,100921.56
2018-04-26T14:34:02.324Z,100930.11
2018-04-26T14:36:28.213Z,100924.53
2018-04-26T14:38:55.199Z,100935.47
2018-04-26T14:41:21.112Z,100937.03
2018-04-26T14:43:47.014Z,100931.13
2018-04-26T14:46:12.920Z,100936.91
2018-04-26T14:48:38.818Z,100931.83
2018-04-26T14:51:04.979Z,100936.55
2018-04-26T14:53:30.898Z,100933.44
2018-04-26T14:55:56.950Z,100939.06
2018-04-26T14:58:22.861Z,100932.63
2018-04-26T15:00:48.940Z,100929.75
2018-04-26T15:03:14.811Z,100934.61
2018-04-26T15:05:40.707Z,100940.76
2018-04-26T15:08:07.016Z,100948.93
2018-04-26T15:10:32.928Z,100954.39
2018-04-26T15:12:58.840Z,100965.76
2018-04-26T15:15:24.819Z,101001.72
2018-04-26T15:17:51.803Z,101006.31
2018-04-26T15:20:18.458Z,101023.86
2018-04-26T15:22:44.396Z,101025.28
2018-04-26T15:25:10.300Z,101041.77
2018-04-26T15:27:36.330Z,101041.03
2018-04-26T15:30:02.382Z,101041.48
2018-04-26T15:32:28.245Z,101031.95
2018-04-26T15:34:54.924Z,101017.67
2018-04-26T15:37:20.889Z,101020.66
2018-04-26T15:39:47.258Z,101015.03
2018-04-26T15:42:13.262Z,101019.50
2018-04-26T15:44:39.176Z,101025.92
2018-04-26T15:47:05.116Z,101027.16
2018-04-26T15:49:31.008Z,101036.89
2018-04-26T15:51:57.155Z,101028.55
2018-04-26T15:54:33.359Z,101027.34
2018-04-26T15:57:32.239Z,101037.48
2018-04-26T16:00:10.419Z,101036.01
2018-04-26T16:09:18.331Z,101049.98
2018-04-26T16:11:56.478Z,101046.86
2018-04-26T16:14:34.988Z,101054.09
2018-04-26T16:17:24.659Z,101067.92
2018-04-26T16:20:09.058Z,101066.28
2018-04-26T16:26:07.354Z,101069.01
2018-04-26T16:28:52.446Z,101057.47
2018-04-26T16:31:37.151Z,101057.69
2018-04-26T16:34:15.395Z,101059.05
2018-04-26T16:36:53.740Z,101066.00
2018-04-26T16:39:19.692Z,101070.38
2018-04-26T16:41:45.572Z,101078.81
2018-04-26T16:44:12.330Z,101078.95
2018-04-26T16:46:38.215Z,101079.19
2018-04-26T16:49:04.227Z,101088.09
2018-04-26T16:51:30.265Z,101086.79
2018-04-26T16:53:56.179Z,101088.39
2018-04-26T16:56:22.098Z,101086.08
2018-04-26T16:58:48.042Z,101082.82
2018-04-26T17:01:13.928Z,101089.02
2018-04-26T17:03:39.905Z,101090.61
2018-04-26T17:06:05.859Z,101095.19
2018-04-26T17:08:31.742Z,101101.03
2018-04-26T17:10:57.643Z,101101.27
2018-04-26T17:13:23.576Z,101090.98
2018-04-26T17:15:49.686Z,101092.31
2018-04-26T17:18:15.574Z,101091.13
2018-04-26T17:20:41.536Z,101095.91
2018-04-26T17:23:07.403Z,101097.38
2018-04-26T17:25:33.346Z,101095.72
2018-04-26T17:27:59.437Z,101086.12
2018-04-26T17:30:25.297Z,101084.22
2018-04-26T17:32:51.193Z,101084.30
2018-04-26T17:35:17.127Z,101079.53
2018-04-26T17:37:43.002Z,101087.03
